sensor_id;sensor_type;location;lat;lon;timestamp;P1;durP1;ratioP1;P2;durP2;ratioP2
50519;SDS011;36468;44.098;3.078;2023-04-03T00:00:29;0.85;;;0.60;;
50519;SDS011;36468;44.098;3.078;2023-04-03T00:02:56;1.02;;;0.70;;
50519;SDS011;36468;44.098;3.078;2023-04-03T00:05:22;0.77;;;0.77;;
50519;SDS011;36468;44.098;3.078;2023-04-03T00:07:48;0.70;;;0.70;;
50519;SDS011;36468;44.098;3.078;2023-04-03T00:10:15;0.80;;;0.77;;
50519;SDS011;36468;44.098;3.078;2023-04-03T00:12:41;0.88;;;0.60;;
50519;SDS011;36468;44.098;3.078;2023-04-03T00:15:07;2.33;;;0.70;;
50519;SDS011;36468;44.098;3.078;2023-04-03T00:17:33;0.65;;;0.60;;
50519;SDS011;36468;44.098;3.078;2023-04-03T00:20:00;2.97;;;0.68;;
50519;SDS011;36468;44.098;3.078;2023-04-03T00:22:26;1.65;;;0.75;;
50519;SDS011;36468;44.098;3.078;2023-04-03T00:24:53;1.45;;;0.90;;
50519;SDS011;36468;44.098;3.078;2023-04-03T00:27:20;1.13;;;0.63;;
50519;SDS011;36468;44.098;3.078;2023-04-03T00:29:46;2.67;;;0.90;;
50519;SDS011;36468;44.098;3.078;2023-04-03T00:32:12;1.05;;;0.60;;
50519;SDS011;36468;44.098;3.078;2023-04-03T00:34:38;0.88;;;0.80;;
50519;SDS011;36468;44.098;3.078;2023-04-03T00:37:04;0.70;;;0.60;;
50519;SDS011;36468;44.098;3.078;2023-04-03T00:39:31;0.55;;;0.55;;
50519;SDS011;36468;44.098;3.078;2023-04-03T00:41:57;0.75;;;0.60;;
50519;SDS011;36468;44.098;3.078;2023-04-03T00:46:58;2.05;;;0.90;;
50519;SDS011;36468;44.098;3.078;2023-04-03T00:49:25;0.40;;;0.40;;
50519;SDS011;36468;44.098;3.078;2023-04-03T00:51:51;1.95;;;0.60;;
50519;SDS011;36468;44.098;3.078;2023-04-03T00:54:17;1.38;;;0.52;;
50519;SDS011;36468;44.098;3.078;2023-04-03T00:56:43;0.65;;;0.60;;
50519;SDS011;36468;44.098;3.078;2023-04-03T00:59:12;1.02;;;0.70;;
50519;SDS011;36468;44.098;3.078;2023-04-03T01:01:39;1.25;;;0.77;;
50519;SDS011;36468;44.098;3.078;2023-04-03T01:04:05;0.70;;;0.60;;
50519;SDS011;36468;44.098;3.078;2023-04-03T01:06:33;0.70;;;0.70;;
50519;SDS011;36468;44.098;3.078;2023-04-03T01:08:59;1.83;;;0.70;;
50519;SDS011;36468;44.098;3.078;2023-04-03T01:11:26;3.42;;;0.60;;
50519;SDS011;36468;44.098;3.078;2023-04-03T01:13:52;0.75;;;0.50;;
50519;SDS011;36468;44.098;3.078;2023-04-03T01:16:18;1.42;;;0.60;;
50519;SDS011;36468;44.098;3.078;2023-04-03T01:18:44;0.68;;;0.60;;
50519;SDS011;36468;44.098;3.078;2023-04-03T01:26:12;1.08;;;0.73;;
50519;SDS011;36468;44.098;3.078;2023-04-03T01:28:38;0.70;;;0.70;;
50519;SDS011;36468;44.098;3.078;2023-04-03T01:33:34;0.60;;;0.50;;
50519;SDS011;36468;44.098;3.078;2023-04-03T01:36:00;1.13;;;0.80;;
50519;SDS011;36468;44.098;3.078;2023-04-03T01:38:26;1.15;;;0.60;;
50519;SDS011;36468;44.098;3.078;2023-04-03T01:40:52;0.73;;;0.60;;
50519;SDS011;36468;44.098;3.078;2023-04-03T01:43:19;1.33;;;0.70;;
50519;SDS011;36468;44.098;3.078;2023-04-03T01:45:45;0.77;;;0.60;;
50519;SDS011;36468;44.098;3.078;2023-04-03T01:48:11;2.85;;;0.77;;
50519;SDS011;36468;44.098;3.078;2023-04-03T01:50:38;0.95;;;0.60;;
50519;SDS011;36468;44.098;3.078;2023-04-03T01:53:04;0.70;;;0.50;;
50519;SDS011;36468;44.098;3.078;2023-04-03T01:55:30;1.15;;;0.60;;
50519;SDS011;36468;44.098;3.078;2023-04-03T01:57:56;1.55;;;0.80;;
50519;SDS011;36468;44.098;3.078;2023-04-03T02:00:22;1.00;;;0.60;;
50519;SDS011;36468;44.098;3.078;2023-04-03T02:02:48;1.20;;;0.70;;
50519;SDS011;36468;44.098;3.078;2023-04-03T02:05:15;0.70;;;0.52;;
50519;SDS011;36468;44.098;3.078;2023-04-03T02:07:41;1.10;;;0.80;;
50519;SDS011;36468;44.098;3.078;2023-04-03T02:10:07;0.88;;;0.68;;
50519;SDS011;36468;44.098;3.078;2023-04-03T02:12:33;0.70;;;0.70;;
50519;SDS011;36468;44.098;3.078;2023-04-03T02:14:59;0.80;;;0.70;;
50519;SDS011;36468;44.098;3.078;2023-04-03T02:17:25;2.95;;;0.65;;
50519;SDS011;36468;44.098;3.078;2023-04-03T02:19:52;1.75;;;0.70;;
50519;SDS011;36468;44.098;3.078;2023-04-03T02:22:18;1.13;;;0.70;;
50519;SDS011;36468;44.098;3.078;2023-04-03T02:24:45;1.40;;;0.68;;
50519;SDS011;36468;44.098;3.078;2023-04-03T02:27:11;0.68;;;0.68;;
50519;SDS011;36468;44.098;3.078;2023-04-03T02:29:37;1.58;;;0.82;;
50519;SDS011;36468;44.098;3.078;2023-04-03T02:32:03;3.83;;;0.70;;
50519;SDS011;36468;44.098;3.078;2023-04-03T02:34:29;2.67;;;0.60;;
50519;SDS011;36468;44.098;3.078;2023-04-03T02:36:55;0.75;;;0.75;;
50519;SDS011;36468;44.098;3.078;2023-04-03T02:39:21;1.42;;;0.60;;
50519;SDS011;36468;44.098;3.078;2023-04-03T02:41:47;1.35;;;0.57;;
50519;SDS011;36468;44.098;3.078;2023-04-03T02:44:13;0.60;;;0.60;;
50519;SDS011;36468;44.098;3.078;2023-04-03T02:46:40;0.68;;;0.68;;
50519;SDS011;36468;44.098;3.078;2023-04-03T02:49:06;1.67;;;0.90;;
50519;SDS011;36468;44.098;3.078;2023-04-03T02:51:32;2.17;;;0.80;;
50519;SDS011;36468;44.098;3.078;2023-04-03T02:53:58;1.40;;;0.60;;
50519;SDS011;36468;44.098;3.078;2023-04-03T02:56:24;1.52;;;0.70;;
50519;SDS011;36468;44.098;3.078;2023-04-03T02:58:51;1.08;;;0.88;;
50519;SDS011;36468;44.098;3.078;2023-04-03T03:01:17;0.73;;;0.70;;
50519;SDS011;36468;44.098;3.078;2023-04-03T03:03:43;2.25;;;0.70;;
50519;SDS011;36468;44.098;3.078;2023-04-03T03:06:11;0.77;;;0.70;;
50519;SDS011;36468;44.098;3.078;2023-04-03T03:08:37;1.50;;;0.88;;
50519;SDS011;36468;44.098;3.078;2023-04-03T03:11:03;0.73;;;0.73;;
50519;SDS011;36468;44.098;3.078;2023-04-03T03:13:30;1.05;;;0.60;;
50519;SDS011;36468;44.098;3.078;2023-04-03T03:15:56;1.45;;;0.73;;
50519;SDS011;36468;44.098;3.078;2023-04-03T03:18:23;3.22;;;0.60;;
50519;SDS011;36468;44.098;3.078;2023-04-03T03:20:56;0.93;;;0.70;;
50519;SDS011;36468;44.098;3.078;2023-04-03T03:23:23;1.93;;;0.60;;
50519;SDS011;36468;44.098;3.078;2023-04-03T03:25:54;1.27;;;0.68;;
50519;SDS011;36468;44.098;3.078;2023-04-03T03:28:20;0.88;;;0.60;;
50519;SDS011;36468;44.098;3.078;2023-04-03T03:30:46;2.15;;;0.60;;
50519;SDS011;36468;44.098;3.078;2023-04-03T03:33:12;0.65;;;0.60;;
50519;SDS011;36468;44.098;3.078;2023-04-03T03:35:38;1.27;;;0.60;;
50519;SDS011;36468;44.098;3.078;2023-04-03T03:38:05;0.52;;;0.52;;
50519;SDS011;36468;44.098;3.078;2023-04-03T03:40:31;0.60;;;0.50;;
50519;SDS011;36468;44.098;3.078;2023-04-03T03:42:57;1.20;;;0.50;;
50519;SDS011;36468;44.098;3.078;2023-04-03T03:45:23;1.50;;;0.60;;
50519;SDS011;36468;44.098;3.078;2023-04-03T03:47:50;1.45;;;0.70;;
50519;SDS011;36468;44.098;3.078;2023-04-03T03:50:16;1.02;;;0.55;;
50519;SDS011;36468;44.098;3.078;2023-04-03T03:52:42;0.85;;;0.68;;
50519;SDS011;36468;44.098;3.078;2023-04-03T03:55:08;0.57;;;0.52;;
50519;SDS011;36468;44.098;3.078;2023-04-03T03:57:34;1.38;;;0.65;;
50519;SDS011;36468;44.098;3.078;2023-04-03T04:00:00;1.05;;;0.60;;
50519;SDS011;36468;44.098;3.078;2023-04-03T04:02:26;1.98;;;0.80;;
50519;SDS011;36468;44.098;3.078;2023-04-03T04:04:52;0.70;;;0.70;;
50519;SDS011;36468;44.098;3.078;2023-04-03T04:07:18;0.50;;;0.50;;
50519;SDS011;36468;44.098;3.078;2023-04-03T04:09:44;1.60;;;0.65;;
50519;SDS011;36468;44.098;3.078;2023-04-03T04:12:10;0.68;;;0.60;;
50519;SDS011;36468;44.098;3.078;2023-04-03T04:14:36;0.90;;;0.80;;
50519;SDS011;36468;44.098;3.078;2023-04-03T04:17:02;1.15;;;0.50;;
50519;SDS011;36468;44.098;3.078;2023-04-03T04:19:28;0.50;;;0.50;;
50519;SDS011;36468;44.098;3.078;2023-04-03T04:21:54;0.75;;;0.52;;
50519;SDS011;36468;44.098;3.078;2023-04-03T04:24:21;0.52;;;0.52;;
50519;SDS011;36468;44.098;3.078;2023-04-03T04:26:47;0.75;;;0.70;;
50519;SDS011;36468;44.098;3.078;2023-04-03T04:29:14;0.88;;;0.70;;
50519;SDS011;36468;44.098;3.078;2023-04-03T04:31:40;0.73;;;0.65;;
50519;SDS011;36468;44.098;3.078;2023-04-03T04:34:06;0.50;;;0.50;;
50519;SDS011;36468;44.098;3.078;2023-04-03T04:36:32;0.60;;;0.60;;
50519;SDS011;36468;44.098;3.078;2023-04-03T04:38:58;1.33;;;0.70;;
50519;SDS011;36468;44.098;3.078;2023-04-03T04:41:24;0.60;;;0.60;;
50519;SDS011;36468;44.098;3.078;2023-04-03T04:43:51;0.70;;;0.70;;
50519;SDS011;36468;44.098;3.078;2023-04-03T04:46:17;0.57;;;0.57;;
50519;SDS011;36468;44.098;3.078;2023-04-03T04:48:43;0.80;;;0.47;;
50519;SDS011;36468;44.098;3.078;2023-04-03T04:51:10;0.90;;;0.50;;
50519;SDS011;36468;44.098;3.078;2023-04-03T04:53:36;1.00;;;0.80;;
50519;SDS011;36468;44.098;3.078;2023-04-03T04:56:02;4.00;;;0.80;;
50519;SDS011;36468;44.098;3.078;2023-04-03T04:58:28;1.08;;;0.70;;
50519;SDS011;36468;44.098;3.078;2023-04-03T05:01:04;1.20;;;0.95;;
50519;SDS011;36468;44.098;3.078;2023-04-03T05:03:31;1.02;;;0.90;;
50519;SDS011;36468;44.098;3.078;2023-04-03T05:05:57;1.55;;;1.20;;
50519;SDS011;36468;44.098;3.078;2023-04-03T05:08:23;1.27;;;0.90;;
50519;SDS011;36468;44.098;3.078;2023-04-03T05:10:50;1.95;;;1.08;;
50519;SDS011;36468;44.098;3.078;2023-04-03T05:13:16;0.77;;;0.70;;
50519;SDS011;36468;44.098;3.078;2023-04-03T05:15:42;0.85;;;0.80;;
50519;SDS011;36468;44.098;3.078;2023-04-03T05:18:08;2.60;;;0.95;;
50519;SDS011;36468;44.098;3.078;2023-04-03T05:20:34;1.60;;;0.93;;
50519;SDS011;36468;44.098;3.078;2023-04-03T05:23:00;1.10;;;1.00;;
50519;SDS011;36468;44.098;3.078;2023-04-03T05:25:27;2.33;;;1.50;;
50519;SDS011;36468;44.098;3.078;2023-04-03T05:27:53;2.25;;;1.23;;
50519;SDS011;36468;44.098;3.078;2023-04-03T05:30:19;2.58;;;1.45;;
50519;SDS011;36468;44.098;3.078;2023-04-03T05:32:45;2.03;;;1.23;;
50519;SDS011;36468;44.098;3.078;2023-04-03T05:35:11;5.05;;;1.33;;
50519;SDS011;36468;44.098;3.078;2023-04-03T05:37:37;2.72;;;1.20;;
50519;SDS011;36468;44.098;3.078;2023-04-03T05:40:04;4.95;;;2.30;;
50519;SDS011;36468;44.098;3.078;2023-04-03T05:42:30;8.00;;;4.00;;
50519;SDS011;36468;44.098;3.078;2023-04-03T05:44:56;3.08;;;2.08;;
50519;SDS011;36468;44.098;3.078;2023-04-03T05:47:22;3.28;;;1.88;;
50519;SDS011;36468;44.098;3.078;2023-04-03T05:49:48;3.08;;;1.73;;
50519;SDS011;36468;44.098;3.078;2023-04-03T05:52:20;4.78;;;1.70;;
50519;SDS011;36468;44.098;3.078;2023-04-03T05:54:47;2.35;;;1.17;;
50519;SDS011;36468;44.098;3.078;2023-04-03T05:57:13;1.35;;;1.00;;
50519;SDS011;36468;44.098;3.078;2023-04-03T05:59:40;3.15;;;1.15;;
50519;SDS011;36468;44.098;3.078;2023-04-03T06:02:06;1.50;;;1.15;;
50519;SDS011;36468;44.098;3.078;2023-04-03T06:04:32;1.30;;;0.80;;
50519;SDS011;36468;44.098;3.078;2023-04-03T06:06:59;1.92;;;0.90;;
50519;SDS011;36468;44.098;3.078;2023-04-03T06:09:26;0.90;;;0.70;;
50519;SDS011;36468;44.098;3.078;2023-04-03T06:11:53;2.83;;;0.90;;
50519;SDS011;36468;44.098;3.078;2023-04-03T06:14:20;1.10;;;0.90;;
50519;SDS011;36468;44.098;3.078;2023-04-03T06:16:46;2.03;;;1.00;;
50519;SDS011;36468;44.098;3.078;2023-04-03T06:19:12;4.63;;;1.30;;
50519;SDS011;36468;44.098;3.078;2023-04-03T06:21:38;1.27;;;1.05;;
50519;SDS011;36468;44.098;3.078;2023-04-03T06:24:04;2.65;;;1.35;;
50519;SDS011;36468;44.098;3.078;2023-04-03T06:26:31;1.20;;;1.05;;
50519;SDS011;36468;44.098;3.078;2023-04-03T06:28:58;3.45;;;1.10;;
50519;SDS011;36468;44.098;3.078;2023-04-03T06:31:24;1.63;;;1.00;;
50519;SDS011;36468;44.098;3.078;2023-04-03T06:33:50;1.33;;;1.10;;
50519;SDS011;36468;44.098;3.078;2023-04-03T06:36:17;1.98;;;1.02;;
50519;SDS011;36468;44.098;3.078;2023-04-03T06:38:45;4.30;;;1.13;;
50519;SDS011;36468;44.098;3.078;2023-04-03T06:41:12;1.08;;;0.98;;
50519;SDS011;36468;44.098;3.078;2023-04-03T06:43:38;1.48;;;1.10;;
50519;SDS011;36468;44.098;3.078;2023-04-03T06:46:04;1.10;;;0.95;;
50519;SDS011;36468;44.098;3.078;2023-04-03T06:48:30;1.80;;;1.30;;
50519;SDS011;36468;44.098;3.078;2023-04-03T06:50:57;1.45;;;1.05;;
50519;SDS011;36468;44.098;3.078;2023-04-03T06:53:23;1.27;;;1.10;;
50519;SDS011;36468;44.098;3.078;2023-04-03T06:55:49;1.20;;;1.10;;
50519;SDS011;36468;44.098;3.078;2023-04-03T06:58:15;1.15;;;1.00;;
50519;SDS011;36468;44.098;3.078;2023-04-03T07:00:42;2.13;;;1.20;;
50519;SDS011;36468;44.098;3.078;2023-04-03T07:03:08;1.08;;;0.98;;
50519;SDS011;36468;44.098;3.078;2023-04-03T07:05:35;2.42;;;0.90;;
50519;SDS011;36468;44.098;3.078;2023-04-03T07:08:01;1.15;;;1.00;;
50519;SDS011;36468;44.098;3.078;2023-04-03T07:10:27;1.30;;;0.80;;
50519;SDS011;36468;44.098;3.078;2023-04-03T07:12:53;1.35;;;0.95;;
50519;SDS011;36468;44.098;3.078;2023-04-03T07:15:19;1.45;;;1.00;;
50519;SDS011;36468;44.098;3.078;2023-04-03T07:17:45;1.33;;;1.02;;
50519;SDS011;36468;44.098;3.078;2023-04-03T07:20:11;3.50;;;0.82;;
50519;SDS011;36468;44.098;3.078;2023-04-03T07:22:38;1.33;;;0.90;;
50519;SDS011;36468;44.098;3.078;2023-04-03T07:25:04;9.82;;;1.25;;
50519;SDS011;36468;44.098;3.078;2023-04-03T07:27:32;1.80;;;1.10;;
50519;SDS011;36468;44.098;3.078;2023-04-03T07:29:58;1.13;;;1.00;;
50519;SDS011;36468;44.098;3.078;2023-04-03T07:32:24;1.73;;;0.98;;
50519;SDS011;36468;44.098;3.078;2023-04-03T07:34:50;2.50;;;0.82;;
50519;SDS011;36468;44.098;3.078;2023-04-03T07:37:16;5.55;;;1.63;;
50519;SDS011;36468;44.098;3.078;2023-04-03T07:39:43;0.82;;;0.70;;
50519;SDS011;36468;44.098;3.078;2023-04-03T07:42:10;1.65;;;1.05;;
50519;SDS011;36468;44.098;3.078;2023-04-03T07:44:37;5.38;;;2.15;;
50519;SDS011;36468;44.098;3.078;2023-04-03T07:47:03;4.43;;;1.00;;
50519;SDS011;36468;44.098;3.078;2023-04-03T07:49:29;1.10;;;0.95;;
50519;SDS011;36468;44.098;3.078;2023-04-03T07:51:56;3.22;;;1.05;;
50519;SDS011;36468;44.098;3.078;2023-04-03T07:54:23;1.75;;;0.85;;
50519;SDS011;36468;44.098;3.078;2023-04-03T07:56:49;1.08;;;0.80;;
50519;SDS011;36468;44.098;3.078;2023-04-03T07:59:15;1.83;;;0.90;;
50519;SDS011;36468;44.098;3.078;2023-04-03T08:01:41;0.70;;;0.70;;
50519;SDS011;36468;44.098;3.078;2023-04-03T08:04:07;1.23;;;0.50;;
50519;SDS011;36468;44.098;3.078;2023-04-03T08:06:33;1.65;;;0.35;;
50519;SDS011;36468;44.098;3.078;2023-04-03T08:09:02;1.05;;;0.43;;
50519;SDS011;36468;44.098;3.078;2023-04-03T08:11:29;0.43;;;0.43;;
50519;SDS011;36468;44.098;3.078;2023-04-03T08:13:55;0.80;;;0.50;;
50519;SDS011;36468;44.098;3.078;2023-04-03T08:16:22;0.93;;;0.60;;
50519;SDS011;36468;44.098;3.078;2023-04-03T08:18:51;3.50;;;0.40;;
50519;SDS011;36468;44.098;3.078;2023-04-03T08:21:18;0.90;;;0.50;;
50519;SDS011;36468;44.098;3.078;2023-04-03T08:23:44;2.25;;;0.52;;
50519;SDS011;36468;44.098;3.078;2023-04-03T08:26:14;0.50;;;0.50;;
50519;SDS011;36468;44.098;3.078;2023-04-03T08:28:40;0.57;;;0.57;;
50519;SDS011;36468;44.098;3.078;2023-04-03T08:31:08;0.90;;;0.30;;
50519;SDS011;36468;44.098;3.078;2023-04-03T08:33:36;5.47;;;1.20;;
50519;SDS011;36468;44.098;3.078;2023-04-03T08:36:03;7.82;;;4.43;;
50519;SDS011;36468;44.098;3.078;2023-04-03T08:38:29;1.50;;;1.15;;
50519;SDS011;36468;44.098;3.078;2023-04-03T08:41:09;1.90;;;0.82;;
50519;SDS011;36468;44.098;3.078;2023-04-03T08:43:41;4.35;;;1.50;;
50519;SDS011;36468;44.098;3.078;2023-04-03T08:46:13;2.47;;;1.17;;
50519;SDS011;36468;44.098;3.078;2023-04-03T08:48:41;3.58;;;2.45;;
50519;SDS011;36468;44.098;3.078;2023-04-03T08:51:12;4.22;;;1.15;;
50519;SDS011;36468;44.098;3.078;2023-04-03T08:53:41;3.00;;;1.00;;
50519;SDS011;36468;44.098;3.078;2023-04-03T08:56:09;2.83;;;1.83;;
50519;SDS011;36468;44.098;3.078;2023-04-03T09:01:19;0.45;;;0.43;;
50519;SDS011;36468;44.098;3.078;2023-04-03T09:03:45;0.88;;;0.70;;
50519;SDS011;36468;44.098;3.078;2023-04-03T09:06:15;2.25;;;1.20;;
50519;SDS011;36468;44.098;3.078;2023-04-03T09:16:19;4.05;;;1.92;;
50519;SDS011;36468;44.098;3.078;2023-04-03T09:18:48;0.60;;;0.60;;
50519;SDS011;36468;44.098;3.078;2023-04-03T09:21:28;0.80;;;0.70;;
50519;SDS011;36468;44.098;3.078;2023-04-03T09:23:58;3.88;;;2.03;;
50519;SDS011;36468;44.098;3.078;2023-04-03T09:26:26;1.60;;;1.20;;
50519;SDS011;36468;44.098;3.078;2023-04-03T09:28:55;1.98;;;1.20;;
50519;SDS011;36468;44.098;3.078;2023-04-03T09:31:24;5.68;;;3.30;;
50519;SDS011;36468;44.098;3.078;2023-04-03T09:33:56;1.13;;;0.85;;
50519;SDS011;36468;44.098;3.078;2023-04-03T09:36:40;1.58;;;1.13;;
50519;SDS011;36468;44.098;3.078;2023-04-03T09:39:14;5.20;;;0.80;;
50519;SDS011;36468;44.098;3.078;2023-04-03T09:41:41;2.05;;;0.80;;
50519;SDS011;36468;44.098;3.078;2023-04-03T09:44:19;0.95;;;0.85;;
50519;SDS011;36468;44.098;3.078;2023-04-03T09:46:46;0.57;;;0.57;;
50519;SDS011;36468;44.098;3.078;2023-04-03T09:49:12;1.45;;;0.60;;
50519;SDS011;36468;44.098;3.078;2023-04-03T09:51:38;4.07;;;0.50;;
50519;SDS011;36468;44.098;3.078;2023-04-03T09:56:51;0.93;;;0.40;;
50519;SDS011;36468;44.098;3.078;2023-04-03T09:59:18;0.32;;;0.25;;
50519;SDS011;36468;44.098;3.078;2023-04-03T10:01:58;0.45;;;0.40;;
50519;SDS011;36468;44.098;3.078;2023-04-03T10:04:25;2.08;;;0.40;;
50519;SDS011;36468;44.098;3.078;2023-04-03T10:06:52;0.38;;;0.38;;
50519;SDS011;36468;44.098;3.078;2023-04-03T10:09:39;0.40;;;0.40;;
50519;SDS011;36468;44.098;3.078;2023-04-03T10:12:08;0.30;;;0.30;;
50519;SDS011;36468;44.098;3.078;2023-04-03T10:14:53;2.05;;;0.55;;
50519;SDS011;36468;44.098;3.078;2023-04-03T10:30:21;0.60;;;0.38;;
50519;SDS011;36468;44.098;3.078;2023-04-03T10:33:02;1.13;;;0.38;;
50519;SDS011;36468;44.098;3.078;2023-04-03T10:38:03;5.05;;;1.80;;
50519;SDS011;36468;44.098;3.078;2023-04-03T10:43:06;1.52;;;0.43;;
50519;SDS011;36468;44.098;3.078;2023-04-03T10:45:52;1.20;;;0.30;;
50519;SDS011;36468;44.098;3.078;2023-04-03T10:53:50;3.63;;;2.20;;
50519;SDS011;36468;44.098;3.078;2023-04-03T10:58:58;9.85;;;4.43;;
50519;SDS011;36468;44.098;3.078;2023-04-03T11:01:32;5.78;;;3.03;;
50519;SDS011;36468;44.098;3.078;2023-04-03T11:03:59;1.80;;;1.00;;
50519;SDS011;36468;44.098;3.078;2023-04-03T11:06:30;4.57;;;2.45;;
50519;SDS011;36468;44.098;3.078;2023-04-03T11:09:11;0.55;;;0.43;;
50519;SDS011;36468;44.098;3.078;2023-04-03T11:11:41;0.30;;;0.30;;
50519;SDS011;36468;44.098;3.078;2023-04-03T11:14:14;0.90;;;0.63;;
50519;SDS011;36468;44.098;3.078;2023-04-03T11:16:48;1.25;;;0.30;;
50519;SDS011;36468;44.098;3.078;2023-04-03T11:19:25;2.05;;;0.50;;
50519;SDS011;36468;44.098;3.078;2023-04-03T11:21:56;0.55;;;0.30;;
50519;SDS011;36468;44.098;3.078;2023-04-03T11:24:25;0.85;;;0.40;;
50519;SDS011;36468;44.098;3.078;2023-04-03T11:26:53;0.28;;;0.28;;
50519;SDS011;36468;44.098;3.078;2023-04-03T11:29:24;1.42;;;0.30;;
50519;SDS011;36468;44.098;3.078;2023-04-03T11:32:00;0.30;;;0.30;;
50519;SDS011;36468;44.098;3.078;2023-04-03T11:34:35;0.75;;;0.55;;
50519;SDS011;36468;44.098;3.078;2023-04-03T11:37:06;0.45;;;0.38;;
50519;SDS011;36468;44.098;3.078;2023-04-03T11:39:37;0.70;;;0.40;;
50519;SDS011;36468;44.098;3.078;2023-04-03T11:44:48;2.60;;;1.50;;
50519;SDS011;36468;44.098;3.078;2023-04-03T11:47:43;5.00;;;1.85;;
50519;SDS011;36468;44.098;3.078;2023-04-03T11:50:04;5.28;;;2.53;;
50519;SDS011;36468;44.098;3.078;2023-04-03T12:03:29;1.15;;;0.52;;
50519;SDS011;36468;44.098;3.078;2023-04-03T12:16:02;0.63;;;0.50;;
50519;SDS011;36468;44.098;3.078;2023-04-03T12:21:14;17.25;;;7.45;;
50519;SDS011;36468;44.098;3.078;2023-04-03T12:26:22;41.65;;;15.70;;
50519;SDS011;36468;44.098;3.078;2023-04-03T12:28:51;33.10;;;13.43;;
50519;SDS011;36468;44.098;3.078;2023-04-03T12:31:18;31.67;;;13.88;;
50519;SDS011;36468;44.098;3.078;2023-04-03T12:37:08;3.80;;;1.80;;
50519;SDS011;36468;44.098;3.078;2023-04-03T12:39:17;0.80;;;0.50;;
50519;SDS011;36468;44.098;3.078;2023-04-03T12:46:52;22.77;;;13.05;;
50519;SDS011;36468;44.098;3.078;2023-04-03T12:51:50;5.70;;;1.95;;
50519;SDS011;36468;44.098;3.078;2023-04-03T12:54:21;0.38;;;0.30;;
50519;SDS011;36468;44.098;3.078;2023-04-03T12:56:48;0.60;;;0.43;;
50519;SDS011;36468;44.098;3.078;2023-04-03T13:01:41;2.97;;;1.17;;
50519;SDS011;36468;44.098;3.078;2023-04-03T13:04:07;2.63;;;1.05;;
50519;SDS011;36468;44.098;3.078;2023-04-03T13:06:40;2.47;;;1.48;;
50519;SDS011;36468;44.098;3.078;2023-04-03T13:09:17;2.10;;;1.35;;
50519;SDS011;36468;44.098;3.078;2023-04-03T13:11:46;1.88;;;0.52;;
50519;SDS011;36468;44.098;3.078;2023-04-03T13:14:31;8.40;;;5.43;;
50519;SDS011;36468;44.098;3.078;2023-04-03T13:17:09;6.03;;;1.02;;
50519;SDS011;36468;44.098;3.078;2023-04-03T13:19:35;4.45;;;2.88;;
50519;SDS011;36468;44.098;3.078;2023-04-03T13:22:03;0.40;;;0.40;;
50519;SDS011;36468;44.098;3.078;2023-04-03T13:24:30;1.23;;;0.70;;
50519;SDS011;36468;44.098;3.078;2023-04-03T13:26:58;3.03;;;1.20;;
50519;SDS011;36468;44.098;3.078;2023-04-03T13:29:29;1.92;;;0.80;;
50519;SDS011;36468;44.098;3.078;2023-04-03T13:31:56;3.13;;;0.80;;
50519;SDS011;36468;44.098;3.078;2023-04-03T13:34:24;4.55;;;1.90;;
50519;SDS011;36468;44.098;3.078;2023-04-03T13:41:47;1.80;;;0.40;;
50519;SDS011;36468;44.098;3.078;2023-04-03T13:46:49;1.77;;;0.20;;
50519;SDS011;36468;44.098;3.078;2023-04-03T13:49:22;1.50;;;1.00;;
50519;SDS011;36468;44.098;3.078;2023-04-03T13:51:53;5.78;;;1.73;;
50519;SDS011;36468;44.098;3.078;2023-04-03T13:54:21;3.45;;;1.10;;
50519;SDS011;36468;44.098;3.078;2023-04-03T13:56:52;0.60;;;0.30;;
50519;SDS011;36468;44.098;3.078;2023-04-03T14:01:49;5.97;;;0.43;;
50519;SDS011;36468;44.098;3.078;2023-04-03T14:04:18;1.40;;;0.40;;
50519;SDS011;36468;44.098;3.078;2023-04-03T14:06:44;0.65;;;0.40;;
50519;SDS011;36468;44.098;3.078;2023-04-03T14:09:11;0.30;;;0.30;;
50519;SDS011;36468;44.098;3.078;2023-04-03T14:11:37;3.22;;;0.60;;
50519;SDS011;36468;44.098;3.078;2023-04-03T14:14:17;1.35;;;0.90;;
50519;SDS011;36468;44.098;3.078;2023-04-03T14:16:45;1.30;;;0.90;;
50519;SDS011;36468;44.098;3.078;2023-04-03T14:19:17;0.82;;;0.68;;
50519;SDS011;36468;44.098;3.078;2023-04-03T14:21:43;0.98;;;0.70;;
50519;SDS011;36468;44.098;3.078;2023-04-03T14:24:09;0.40;;;0.30;;
50519;SDS011;36468;44.098;3.078;2023-04-03T14:26:36;0.30;;;0.30;;
50519;SDS011;36468;44.098;3.078;2023-04-03T14:29:02;0.88;;;0.38;;
50519;SDS011;36468;44.098;3.078;2023-04-03T14:31:28;0.77;;;0.47;;
50519;SDS011;36468;44.098;3.078;2023-04-03T14:33:54;0.70;;;0.43;;
50519;SDS011;36468;44.098;3.078;2023-04-03T14:36:21;0.88;;;0.47;;
50519;SDS011;36468;44.098;3.078;2023-04-03T14:38:48;0.30;;;0.30;;
50519;SDS011;36468;44.098;3.078;2023-04-03T14:41:16;0.68;;;0.60;;
50519;SDS011;36468;44.098;3.078;2023-04-03T14:43:42;1.13;;;0.70;;
50519;SDS011;36468;44.098;3.078;2023-04-03T14:46:13;4.93;;;1.38;;
50519;SDS011;36468;44.098;3.078;2023-04-03T14:48:40;0.75;;;0.70;;
50519;SDS011;36468;44.098;3.078;2023-04-03T14:51:06;1.77;;;0.30;;
50519;SDS011;36468;44.098;3.078;2023-04-03T14:53:32;2.55;;;0.30;;
50519;SDS011;36468;44.098;3.078;2023-04-03T14:55:58;0.38;;;0.38;;
50519;SDS011;36468;44.098;3.078;2023-04-03T14:58:25;1.65;;;0.40;;
50519;SDS011;36468;44.098;3.078;2023-04-03T15:00:51;0.38;;;0.30;;
50519;SDS011;36468;44.098;3.078;2023-04-03T15:03:18;0.30;;;0.20;;
50519;SDS011;36468;44.098;3.078;2023-04-03T15:05:45;0.30;;;0.30;;
50519;SDS011;36468;44.098;3.078;2023-04-03T15:08:45;1.00;;;0.40;;
50519;SDS011;36468;44.098;3.078;2023-04-03T15:11:03;0.40;;;0.40;;
50519;SDS011;36468;44.098;3.078;2023-04-03T15:13:30;0.55;;;0.55;;
50519;SDS011;36468;44.098;3.078;2023-04-03T15:15:56;1.67;;;0.47;;
50519;SDS011;36468;44.098;3.078;2023-04-03T15:18:22;0.40;;;0.40;;
50519;SDS011;36468;44.098;3.078;2023-04-03T15:20:51;0.55;;;0.40;;
50519;SDS011;36468;44.098;3.078;2023-04-03T15:23:17;0.40;;;0.30;;
50519;SDS011;36468;44.098;3.078;2023-04-03T15:25:44;0.60;;;0.60;;
50519;SDS011;36468;44.098;3.078;2023-04-03T15:28:52;1.20;;;0.55;;
50519;SDS011;36468;44.098;3.078;2023-04-03T15:31:00;0.32;;;0.20;;
50519;SDS011;36468;44.098;3.078;2023-04-03T15:33:26;0.35;;;0.30;;
50519;SDS011;36468;44.098;3.078;2023-04-03T15:35:52;0.55;;;0.25;;
50519;SDS011;36468;44.098;3.078;2023-04-03T15:38:19;0.40;;;0.38;;
50519;SDS011;36468;44.098;3.078;2023-04-03T15:40:45;0.30;;;0.30;;
50519;SDS011;36468;44.098;3.078;2023-04-03T15:43:15;1.00;;;0.70;;
50519;SDS011;36468;44.098;3.078;2023-04-03T15:45:41;2.22;;;1.08;;
50519;SDS011;36468;44.098;3.078;2023-04-03T15:48:07;0.40;;;0.30;;
50519;SDS011;36468;44.098;3.078;2023-04-03T15:50:33;0.40;;;0.30;;
50519;SDS011;36468;44.098;3.078;2023-04-03T15:53:00;3.47;;;0.30;;
50519;SDS011;36468;44.098;3.078;2023-04-03T15:55:28;0.73;;;0.40;;
50519;SDS011;36468;44.098;3.078;2023-04-03T15:57:55;1.15;;;0.40;;
50519;SDS011;36468;44.098;3.078;2023-04-03T16:00:21;0.90;;;0.40;;
50519;SDS011;36468;44.098;3.078;2023-04-03T16:02:48;6.00;;;1.52;;
50519;SDS011;36468;44.098;3.078;2023-04-03T16:05:15;0.50;;;0.50;;
50519;SDS011;36468;44.098;3.078;2023-04-03T16:07:42;1.00;;;0.35;;
50519;SDS011;36468;44.098;3.078;2023-04-03T16:10:09;1.15;;;0.40;;
50519;SDS011;36468;44.098;3.078;2023-04-03T16:12:35;0.40;;;0.30;;
50519;SDS011;36468;44.098;3.078;2023-04-03T16:15:01;0.40;;;0.40;;
50519;SDS011;36468;44.098;3.078;2023-04-03T16:17:27;0.93;;;0.47;;
50519;SDS011;36468;44.098;3.078;2023-04-03T16:19:55;0.52;;;0.52;;
50519;SDS011;36468;44.098;3.078;2023-04-03T16:22:21;1.05;;;0.43;;
50519;SDS011;36468;44.098;3.078;2023-04-03T16:24:49;0.70;;;0.70;;
50519;SDS011;36468;44.098;3.078;2023-04-03T16:27:16;2.45;;;0.93;;
50519;SDS011;36468;44.098;3.078;2023-04-03T16:29:42;1.58;;;0.88;;
50519;SDS011;36468;44.098;3.078;2023-04-03T16:32:08;0.70;;;0.70;;